sensor_id;sensor_type;location;lat;lon;timestamp;P1;durP1;ratioP1;P2;durP2;ratioP2
41434;SDS011;27177;22.262;114.192;2022-10-31T00:00:46;13.77;;;8.20;;
41434;SDS011;27177;22.262;114.192;2022-10-31T00:03:13;13.32;;;8.55;;
41434;SDS011;27177;22.262;114.192;2022-10-31T00:05:42;12.98;;;8.93;;
41434;SDS011;27177;22.262;114.192;2022-10-31T00:08:09;12.68;;;8.55;;
41434;SDS011;27177;22.262;114.192;2022-10-31T00:10:39;12.73;;;8.38;;
41434;SDS011;27177;22.262;114.192;2022-10-31T00:13:07;11.95;;;8.63;;
41434;SDS011;27177;22.262;114.192;2022-10-31T00:15:38;11.98;;;8.70;;
41434;SDS011;27177;22.262;114.192;2022-10-31T00:18:06;11.48;;;8.70;;
41434;SDS011;27177;22.262;114.192;2022-10-31T00:20:34;14.07;;;8.60;;
41434;SDS011;27177;22.262;114.192;2022-10-31T00:23:01;12.77;;;8.70;;
41434;SDS011;27177;22.262;114.192;2022-10-31T00:25:29;11.02;;;8.40;;
41434;SDS011;27177;22.262;114.192;2022-10-31T00:28:01;11.25;;;8.45;;
41434;SDS011;27177;22.262;114.192;2022-10-31T00:30:28;11.32;;;8.23;;
41434;SDS011;27177;22.262;114.192;2022-10-31T00:32:55;12.65;;;8.23;;
41434;SDS011;27177;22.262;114.192;2022-10-31T00:35:21;12.20;;;8.13;;
41434;SDS011;27177;22.262;114.192;2022-10-31T00:37:48;13.93;;;9.13;;
41434;SDS011;27177;22.262;114.192;2022-10-31T00:40:15;15.45;;;8.75;;
41434;SDS011;27177;22.262;114.192;2022-10-31T00:42:41;10.85;;;8.25;;
41434;SDS011;27177;22.262;114.192;2022-10-31T00:45:09;14.05;;;8.73;;
41434;SDS011;27177;22.262;114.192;2022-10-31T00:47:36;13.88;;;8.57;;
41434;SDS011;27177;22.262;114.192;2022-10-31T00:50:03;12.75;;;8.75;;
41434;SDS011;27177;22.262;114.192;2022-10-31T00:52:31;13.88;;;7.97;;
41434;SDS011;27177;22.262;114.192;2022-10-31T00:54:58;13.27;;;9.02;;
41434;SDS011;27177;22.262;114.192;2022-10-31T00:57:24;14.93;;;7.80;;
41434;SDS011;27177;22.262;114.192;2022-10-31T00:59:51;14.23;;;8.35;;
41434;SDS011;27177;22.262;114.192;2022-10-31T01:02:18;11.00;;;7.85;;
41434;SDS011;27177;22.262;114.192;2022-10-31T01:04:44;12.02;;;7.88;;
41434;SDS011;27177;22.262;114.192;2022-10-31T01:07:11;14.10;;;8.63;;
41434;SDS011;27177;22.262;114.192;2022-10-31T01:09:39;11.00;;;8.70;;
41434;SDS011;27177;22.262;114.192;2022-10-31T01:12:06;16.30;;;8.50;;
41434;SDS011;27177;22.262;114.192;2022-10-31T01:14:33;18.38;;;9.07;;
41434;SDS011;27177;22.262;114.192;2022-10-31T01:16:59;13.88;;;8.25;;
41434;SDS011;27177;22.262;114.192;2022-10-31T01:19:26;11.10;;;8.40;;
41434;SDS011;27177;22.262;114.192;2022-10-31T01:21:56;11.43;;;7.55;;
41434;SDS011;27177;22.262;114.192;2022-10-31T01:24:23;13.77;;;8.18;;
41434;SDS011;27177;22.262;114.192;2022-10-31T01:26:49;11.15;;;7.97;;
41434;SDS011;27177;22.262;114.192;2022-10-31T01:29:16;13.20;;;8.57;;
41434;SDS011;27177;22.262;114.192;2022-10-31T01:31:43;13.35;;;9.10;;
41434;SDS011;27177;22.262;114.192;2022-10-31T01:34:13;14.20;;;8.23;;
41434;SDS011;27177;22.262;114.192;2022-10-31T01:36:41;15.40;;;8.40;;
41434;SDS011;27177;22.262;114.192;2022-10-31T01:39:14;12.90;;;8.20;;
41434;SDS011;27177;22.262;114.192;2022-10-31T01:41:42;10.40;;;8.35;;
41434;SDS011;27177;22.262;114.192;2022-10-31T01:46:43;13.98;;;7.40;;
41434;SDS011;27177;22.262;114.192;2022-10-31T01:49:39;14.15;;;8.02;;
41434;SDS011;27177;22.262;114.192;2022-10-31T01:52:19;12.70;;;7.80;;
41434;SDS011;27177;22.262;114.192;2022-10-31T01:55:08;15.98;;;9.02;;
41434;SDS011;27177;22.262;114.192;2022-10-31T01:57:45;13.70;;;8.35;;
41434;SDS011;27177;22.262;114.192;2022-10-31T02:00:14;11.15;;;7.50;;
41434;SDS011;27177;22.262;114.192;2022-10-31T02:02:41;15.68;;;8.38;;
41434;SDS011;27177;22.262;114.192;2022-10-31T02:05:10;13.48;;;7.70;;
41434;SDS011;27177;22.262;114.192;2022-10-31T02:07:43;12.93;;;7.82;;
41434;SDS011;27177;22.262;114.192;2022-10-31T02:10:19;12.68;;;8.15;;
41434;SDS011;27177;22.262;114.192;2022-10-31T02:12:49;11.82;;;7.00;;
41434;SDS011;27177;22.262;114.192;2022-10-31T02:15:18;10.97;;;7.33;;
41434;SDS011;27177;22.262;114.192;2022-10-31T02:17:45;16.27;;;8.48;;
41434;SDS011;27177;22.262;114.192;2022-10-31T02:20:19;14.70;;;7.65;;
41434;SDS011;27177;22.262;114.192;2022-10-31T02:28:49;15.32;;;7.28;;
41434;SDS011;27177;22.262;114.192;2022-10-31T02:37:21;14.75;;;8.25;;
41434;SDS011;27177;22.262;114.192;2022-10-31T02:40:04;12.25;;;7.18;;
41434;SDS011;27177;22.262;114.192;2022-10-31T02:45:32;14.60;;;7.65;;
41434;SDS011;27177;22.262;114.192;2022-10-31T02:48:10;12.35;;;8.25;;
41434;SDS011;27177;22.262;114.192;2022-10-31T02:50:45;12.95;;;8.05;;
41434;SDS011;27177;22.262;114.192;2022-10-31T02:53:20;11.75;;;7.22;;
41434;SDS011;27177;22.262;114.192;2022-10-31T02:55:50;11.57;;;7.38;;
41434;SDS011;27177;22.262;114.192;2022-10-31T02:58:26;11.05;;;7.03;;
41434;SDS011;27177;22.262;114.192;2022-10-31T03:01:03;10.93;;;7.20;;
41434;SDS011;27177;22.262;114.192;2022-10-31T03:03:57;17.42;;;6.78;;
41434;SDS011;27177;22.262;114.192;2022-10-31T03:07:01;12.55;;;7.05;;
41434;SDS011;27177;22.262;114.192;2022-10-31T03:14:48;10.90;;;7.13;;
41434;SDS011;27177;22.262;114.192;2022-10-31T03:17:45;15.52;;;7.97;;
41434;SDS011;27177;22.262;114.192;2022-10-31T03:20:39;14.38;;;7.57;;
41434;SDS011;27177;22.262;114.192;2022-10-31T03:23:19;15.13;;;7.10;;
41434;SDS011;27177;22.262;114.192;2022-10-31T03:25:50;17.15;;;8.23;;
41434;SDS011;27177;22.262;114.192;2022-10-31T03:28:21;10.50;;;7.97;;
41434;SDS011;27177;22.262;114.192;2022-10-31T03:30:53;11.85;;;6.70;;
41434;SDS011;27177;22.262;114.192;2022-10-31T03:33:24;10.60;;;7.07;;
41434;SDS011;27177;22.262;114.192;2022-10-31T03:35:54;10.77;;;7.28;;
41434;SDS011;27177;22.262;114.192;2022-10-31T03:38:23;10.15;;;6.82;;
41434;SDS011;27177;22.262;114.192;2022-10-31T03:40:51;11.10;;;6.97;;
41434;SDS011;27177;22.262;114.192;2022-10-31T03:43:21;11.52;;;6.93;;
41434;SDS011;27177;22.262;114.192;2022-10-31T03:45:54;15.77;;;7.07;;
41434;SDS011;27177;22.262;114.192;2022-10-31T03:48:21;11.70;;;7.30;;
41434;SDS011;27177;22.262;114.192;2022-10-31T03:50:52;14.65;;;7.18;;
41434;SDS011;27177;22.262;114.192;2022-10-31T03:53:36;8.85;;;6.63;;
41434;SDS011;27177;22.262;114.192;2022-10-31T03:56:23;11.32;;;6.85;;
41434;SDS011;27177;22.262;114.192;2022-10-31T03:59:04;14.10;;;7.85;;
41434;SDS011;27177;22.262;114.192;2022-10-31T04:01:42;10.82;;;7.57;;
41434;SDS011;27177;22.262;114.192;2022-10-31T04:04:14;11.23;;;7.10;;
41434;SDS011;27177;22.262;114.192;2022-10-31T04:06:42;11.98;;;7.55;;
41434;SDS011;27177;22.262;114.192;2022-10-31T04:09:10;11.20;;;7.10;;
41434;SDS011;27177;22.262;114.192;2022-10-31T04:11:42;13.18;;;6.80;;
41434;SDS011;27177;22.262;114.192;2022-10-31T04:14:21;12.95;;;6.82;;
41434;SDS011;27177;22.262;114.192;2022-10-31T04:16:51;11.02;;;7.05;;
41434;SDS011;27177;22.262;114.192;2022-10-31T04:19:17;13.77;;;7.32;;
41434;SDS011;27177;22.262;114.192;2022-10-31T04:21:44;14.73;;;7.85;;
41434;SDS011;27177;22.262;114.192;2022-10-31T04:24:11;14.52;;;7.90;;
41434;SDS011;27177;22.262;114.192;2022-10-31T04:26:38;9.75;;;6.68;;
41434;SDS011;27177;22.262;114.192;2022-10-31T04:29:05;11.20;;;6.45;;
41434;SDS011;27177;22.262;114.192;2022-10-31T04:31:33;9.82;;;6.82;;
41434;SDS011;27177;22.262;114.192;2022-10-31T04:33:59;9.18;;;6.85;;
41434;SDS011;27177;22.262;114.192;2022-10-31T04:36:27;11.60;;;6.47;;
41434;SDS011;27177;22.262;114.192;2022-10-31T04:38:54;13.05;;;6.93;;
41434;SDS011;27177;22.262;114.192;2022-10-31T04:41:21;9.02;;;6.45;;
41434;SDS011;27177;22.262;114.192;2022-10-31T04:43:48;12.68;;;6.88;;
41434;SDS011;27177;22.262;114.192;2022-10-31T04:48:50;13.55;;;7.97;;
41434;SDS011;27177;22.262;114.192;2022-10-31T04:51:16;11.25;;;7.05;;
41434;SDS011;27177;22.262;114.192;2022-10-31T04:53:43;16.08;;;7.38;;
41434;SDS011;27177;22.262;114.192;2022-10-31T04:56:10;12.57;;;7.50;;
41434;SDS011;27177;22.262;114.192;2022-10-31T04:58:36;11.20;;;7.38;;
41434;SDS011;27177;22.262;114.192;2022-10-31T05:01:03;12.80;;;7.05;;
41434;SDS011;27177;22.262;114.192;2022-10-31T05:03:30;15.75;;;7.20;;
41434;SDS011;27177;22.262;114.192;2022-10-31T05:05:57;12.55;;;7.50;;
41434;SDS011;27177;22.262;114.192;2022-10-31T05:08:24;10.88;;;7.10;;
41434;SDS011;27177;22.262;114.192;2022-10-31T05:10:50;13.50;;;7.07;;
41434;SDS011;27177;22.262;114.192;2022-10-31T05:13:17;14.07;;;7.18;;
41434;SDS011;27177;22.262;114.192;2022-10-31T05:15:44;13.45;;;7.03;;
41434;SDS011;27177;22.262;114.192;2022-10-31T05:18:14;13.10;;;7.75;;
41434;SDS011;27177;22.262;114.192;2022-10-31T05:20:41;12.75;;;7.55;;
41434;SDS011;27177;22.262;114.192;2022-10-31T05:23:07;11.98;;;7.30;;
41434;SDS011;27177;22.262;114.192;2022-10-31T05:25:34;13.85;;;6.78;;
41434;SDS011;27177;22.262;114.192;2022-10-31T05:28:01;15.02;;;6.60;;
41434;SDS011;27177;22.262;114.192;2022-10-31T05:30:29;12.95;;;6.82;;
41434;SDS011;27177;22.262;114.192;2022-10-31T05:32:57;11.93;;;7.22;;
41434;SDS011;27177;22.262;114.192;2022-10-31T05:35:25;11.20;;;7.32;;
41434;SDS011;27177;22.262;114.192;2022-10-31T05:37:54;13.68;;;7.03;;
41434;SDS011;27177;22.262;114.192;2022-10-31T05:40:23;12.32;;;6.82;;
41434;SDS011;27177;22.262;114.192;2022-10-31T05:42:51;14.30;;;6.78;;
41434;SDS011;27177;22.262;114.192;2022-10-31T05:45:19;13.80;;;6.25;;
41434;SDS011;27177;22.262;114.192;2022-10-31T05:48:04;11.75;;;7.20;;
41434;SDS011;27177;22.262;114.192;2022-10-31T05:50:31;11.13;;;6.35;;
41434;SDS011;27177;22.262;114.192;2022-10-31T05:52:59;13.23;;;6.63;;
41434;SDS011;27177;22.262;114.192;2022-10-31T05:55:28;12.23;;;7.05;;
41434;SDS011;27177;22.262;114.192;2022-10-31T05:57:56;14.27;;;6.60;;
41434;SDS011;27177;22.262;114.192;2022-10-31T06:00:23;14.18;;;7.95;;
41434;SDS011;27177;22.262;114.192;2022-10-31T06:03:00;15.30;;;7.53;;
41434;SDS011;27177;22.262;114.192;2022-10-31T06:05:29;9.55;;;5.95;;
41434;SDS011;27177;22.262;114.192;2022-10-31T06:07:56;14.77;;;7.45;;
41434;SDS011;27177;22.262;114.192;2022-10-31T06:10:24;12.57;;;6.90;;
41434;SDS011;27177;22.262;114.192;2022-10-31T06:12:51;12.85;;;6.47;;
41434;SDS011;27177;22.262;114.192;2022-10-31T06:15:25;12.13;;;7.07;;
41434;SDS011;27177;22.262;114.192;2022-10-31T06:18:01;9.38;;;6.90;;
41434;SDS011;27177;22.262;114.192;2022-10-31T06:20:30;13.27;;;6.15;;
41434;SDS011;27177;22.262;114.192;2022-10-31T06:22:57;12.63;;;6.70;;
41434;SDS011;27177;22.262;114.192;2022-10-31T06:25:25;11.05;;;5.82;;
41434;SDS011;27177;22.262;114.192;2022-10-31T06:27:52;16.92;;;7.25;;
41434;SDS011;27177;22.262;114.192;2022-10-31T06:30:19;8.70;;;6.10;;
41434;SDS011;27177;22.262;114.192;2022-10-31T06:32:46;9.75;;;6.95;;
41434;SDS011;27177;22.262;114.192;2022-10-31T06:35:14;9.98;;;6.28;;
41434;SDS011;27177;22.262;114.192;2022-10-31T06:37:42;12.23;;;7.03;;
41434;SDS011;27177;22.262;114.192;2022-10-31T06:40:09;10.18;;;6.80;;
41434;SDS011;27177;22.262;114.192;2022-10-31T06:42:36;12.85;;;7.15;;
41434;SDS011;27177;22.262;114.192;2022-10-31T06:45:03;11.95;;;7.10;;
41434;SDS011;27177;22.262;114.192;2022-10-31T06:47:30;14.40;;;7.25;;
41434;SDS011;27177;22.262;114.192;2022-10-31T06:49:57;11.10;;;6.68;;
41434;SDS011;27177;22.262;114.192;2022-10-31T06:52:24;15.73;;;7.35;;
41434;SDS011;27177;22.262;114.192;2022-10-31T06:54:51;12.25;;;6.57;;
41434;SDS011;27177;22.262;114.192;2022-10-31T06:57:18;9.45;;;6.20;;
41434;SDS011;27177;22.262;114.192;2022-10-31T06:59:45;12.82;;;6.57;;
41434;SDS011;27177;22.262;114.192;2022-10-31T07:02:12;13.00;;;7.88;;
41434;SDS011;27177;22.262;114.192;2022-10-31T07:04:39;9.95;;;6.13;;
41434;SDS011;27177;22.262;114.192;2022-10-31T07:07:08;12.90;;;6.20;;
41434;SDS011;27177;22.262;114.192;2022-10-31T07:09:35;10.20;;;6.40;;
41434;SDS011;27177;22.262;114.192;2022-10-31T07:12:02;12.77;;;7.40;;
41434;SDS011;27177;22.262;114.192;2022-10-31T07:14:29;12.13;;;7.45;;
41434;SDS011;27177;22.262;114.192;2022-10-31T07:16:56;11.25;;;7.13;;
41434;SDS011;27177;22.262;114.192;2022-10-31T07:19:23;16.92;;;7.78;;
41434;SDS011;27177;22.262;114.192;2022-10-31T07:21:50;8.73;;;6.70;;
41434;SDS011;27177;22.262;114.192;2022-10-31T07:24:17;24.23;;;7.55;;
41434;SDS011;27177;22.262;114.192;2022-10-31T07:26:45;11.60;;;6.90;;
41434;SDS011;27177;22.262;114.192;2022-10-31T07:29:12;9.95;;;6.45;;
41434;SDS011;27177;22.262;114.192;2022-10-31T07:31:39;9.80;;;5.97;;
41434;SDS011;27177;22.262;114.192;2022-10-31T07:34:07;12.13;;;6.53;;
41434;SDS011;27177;22.262;114.192;2022-10-31T07:36:36;11.40;;;6.57;;
41434;SDS011;27177;22.262;114.192;2022-10-31T07:39:03;10.48;;;7.30;;
41434;SDS011;27177;22.262;114.192;2022-10-31T07:41:30;11.52;;;6.50;;
41434;SDS011;27177;22.262;114.192;2022-10-31T07:43:57;14.75;;;6.63;;
41434;SDS011;27177;22.262;114.192;2022-10-31T07:46:24;11.73;;;6.18;;
41434;SDS011;27177;22.262;114.192;2022-10-31T07:48:50;13.27;;;6.45;;
41434;SDS011;27177;22.262;114.192;2022-10-31T07:51:17;16.42;;;6.68;;
41434;SDS011;27177;22.262;114.192;2022-10-31T07:53:44;19.25;;;7.72;;
41434;SDS011;27177;22.262;114.192;2022-10-31T07:56:11;10.00;;;6.18;;
41434;SDS011;27177;22.262;114.192;2022-10-31T07:58:38;13.98;;;6.22;;
41434;SDS011;27177;22.262;114.192;2022-10-31T08:01:05;10.73;;;6.57;;
41434;SDS011;27177;22.262;114.192;2022-10-31T08:03:32;13.40;;;7.60;;
41434;SDS011;27177;22.262;114.192;2022-10-31T08:05:59;13.88;;;6.72;;
41434;SDS011;27177;22.262;114.192;2022-10-31T08:08:26;9.52;;;6.55;;
41434;SDS011;27177;22.262;114.192;2022-10-31T08:10:53;13.82;;;6.57;;
41434;SDS011;27177;22.262;114.192;2022-10-31T08:13:25;15.32;;;7.20;;
41434;SDS011;27177;22.262;114.192;2022-10-31T08:15:52;8.55;;;6.47;;
41434;SDS011;27177;22.262;114.192;2022-10-31T08:18:21;12.80;;;6.90;;
41434;SDS011;27177;22.262;114.192;2022-10-31T08:20:49;10.63;;;7.30;;
41434;SDS011;27177;22.262;114.192;2022-10-31T08:23:16;11.63;;;7.35;;
41434;SDS011;27177;22.262;114.192;2022-10-31T08:25:43;9.52;;;5.93;;
41434;SDS011;27177;22.262;114.192;2022-10-31T08:28:12;11.05;;;6.45;;
41434;SDS011;27177;22.262;114.192;2022-10-31T08:30:40;8.82;;;6.70;;
41434;SDS011;27177;22.262;114.192;2022-10-31T08:35:37;16.60;;;6.38;;
41434;SDS011;27177;22.262;114.192;2022-10-31T08:38:04;15.05;;;8.00;;
41434;SDS011;27177;22.262;114.192;2022-10-31T08:40:33;12.68;;;6.53;;
41434;SDS011;27177;22.262;114.192;2022-10-31T08:43:02;13.30;;;6.70;;
41434;SDS011;27177;22.262;114.192;2022-10-31T08:45:31;16.00;;;7.07;;
41434;SDS011;27177;22.262;114.192;2022-10-31T08:48:04;14.75;;;6.90;;
41434;SDS011;27177;22.262;114.192;2022-10-31T08:50:34;11.30;;;6.93;;
41434;SDS011;27177;22.262;114.192;2022-10-31T08:53:03;11.55;;;6.40;;
41434;SDS011;27177;22.262;114.192;2022-10-31T08:55:33;11.88;;;7.07;;
41434;SDS011;27177;22.262;114.192;2022-10-31T08:58:01;12.30;;;6.45;;
41434;SDS011;27177;22.262;114.192;2022-10-31T09:00:33;12.75;;;6.32;;
41434;SDS011;27177;22.262;114.192;2022-10-31T09:03:04;12.40;;;6.70;;
41434;SDS011;27177;22.262;114.192;2022-10-31T09:05:36;10.82;;;6.43;;
41434;SDS011;27177;22.262;114.192;2022-10-31T09:08:04;12.48;;;6.25;;
41434;SDS011;27177;22.262;114.192;2022-10-31T09:10:34;11.05;;;6.40;;
41434;SDS011;27177;22.262;114.192;2022-10-31T09:13:03;10.07;;;6.78;;
41434;SDS011;27177;22.262;114.192;2022-10-31T09:15:33;9.18;;;6.28;;
41434;SDS011;27177;22.262;114.192;2022-10-31T09:18:02;9.13;;;6.78;;
41434;SDS011;27177;22.262;114.192;2022-10-31T09:20:29;11.63;;;6.93;;
41434;SDS011;27177;22.262;114.192;2022-10-31T09:22:58;12.70;;;6.65;;
41434;SDS011;27177;22.262;114.192;2022-10-31T09:25:29;10.93;;;6.65;;
41434;SDS011;27177;22.262;114.192;2022-10-31T09:27:57;10.55;;;6.35;;
41434;SDS011;27177;22.262;114.192;2022-10-31T09:30:26;13.77;;;7.35;;
41434;SDS011;27177;22.262;114.192;2022-10-31T09:32:55;12.93;;;7.45;;
41434;SDS011;27177;22.262;114.192;2022-10-31T09:35:26;9.32;;;6.57;;
41434;SDS011;27177;22.262;114.192;2022-10-31T09:38:00;9.43;;;6.07;;
41434;SDS011;27177;22.262;114.192;2022-10-31T09:40:37;12.38;;;6.88;;
41434;SDS011;27177;22.262;114.192;2022-10-31T09:49:16;17.60;;;7.45;;
41434;SDS011;27177;22.262;114.192;2022-10-31T09:52:13;11.95;;;7.25;;
41434;SDS011;27177;22.262;114.192;2022-10-31T09:54:46;10.32;;;6.75;;
41434;SDS011;27177;22.262;114.192;2022-10-31T09:57:27;11.38;;;5.95;;
41434;SDS011;27177;22.262;114.192;2022-10-31T09:59:59;9.07;;;7.30;;
41434;SDS011;27177;22.262;114.192;2022-10-31T10:05:00;10.05;;;6.72;;
41434;SDS011;27177;22.262;114.192;2022-10-31T10:16:10;9.57;;;7.00;;
41434;SDS011;27177;22.262;114.192;2022-10-31T10:27:11;9.27;;;6.80;;
41434;SDS011;27177;22.262;114.192;2022-10-31T10:29:45;11.52;;;7.53;;
41434;SDS011;27177;22.262;114.192;2022-10-31T10:32:23;11.40;;;6.88;;
41434;SDS011;27177;22.262;114.192;2022-10-31T10:34:54;12.27;;;6.53;;
41434;SDS011;27177;22.262;114.192;2022-10-31T10:37:32;9.75;;;6.90;;
41434;SDS011;27177;22.262;114.192;2022-10-31T10:40:22;14.65;;;6.93;;
41434;SDS011;27177;22.262;114.192;2022-10-31T10:42:55;10.43;;;6.57;;
41434;SDS011;27177;22.262;114.192;2022-10-31T10:46:13;13.55;;;6.85;;
41434;SDS011;27177;22.262;114.192;2022-10-31T10:51:37;7.95;;;6.57;;
41434;SDS011;27177;22.262;114.192;2022-10-31T10:59:50;12.05;;;7.05;;
41434;SDS011;27177;22.262;114.192;2022-10-31T11:02:19;11.73;;;6.85;;
41434;SDS011;27177;22.262;114.192;2022-10-31T11:04:54;11.75;;;7.13;;
41434;SDS011;27177;22.262;114.192;2022-10-31T11:07:23;13.18;;;7.57;;
41434;SDS011;27177;22.262;114.192;2022-10-31T11:09:50;10.52;;;6.82;;
41434;SDS011;27177;22.262;114.192;2022-10-31T11:12:29;11.93;;;7.40;;
41434;SDS011;27177;22.262;114.192;2022-10-31T11:15:02;12.18;;;7.03;;
41434;SDS011;27177;22.262;114.192;2022-10-31T11:17:41;9.95;;;6.43;;
41434;SDS011;27177;22.262;114.192;2022-10-31T11:22:38;8.65;;;6.50;;
41434;SDS011;27177;22.262;114.192;2022-10-31T11:30:35;13.60;;;6.60;;
41434;SDS011;27177;22.262;114.192;2022-10-31T11:33:15;9.50;;;7.45;;
41434;SDS011;27177;22.262;114.192;2022-10-31T11:35:51;12.98;;;6.97;;
41434;SDS011;27177;22.262;114.192;2022-10-31T11:38:20;9.48;;;7.28;;
41434;SDS011;27177;22.262;114.192;2022-10-31T11:40:57;8.60;;;5.78;;
41434;SDS011;27177;22.262;114.192;2022-10-31T11:43:38;14.07;;;6.60;;
41434;SDS011;27177;22.262;114.192;2022-10-31T11:46:11;8.77;;;7.07;;
41434;SDS011;27177;22.262;114.192;2022-10-31T11:48:50;10.77;;;6.75;;
41434;SDS011;27177;22.262;114.192;2022-10-31T11:51:23;10.93;;;6.47;;
41434;SDS011;27177;22.262;114.192;2022-10-31T11:54:01;12.30;;;6.65;;
41434;SDS011;27177;22.262;114.192;2022-10-31T11:56:39;12.02;;;6.32;;
41434;SDS011;27177;22.262;114.192;2022-10-31T11:59:40;9.05;;;6.43;;
41434;SDS011;27177;22.262;114.192;2022-10-31T12:02:00;13.65;;;7.63;;
41434;SDS011;27177;22.262;114.192;2022-10-31T12:04:41;9.43;;;6.80;;
41434;SDS011;27177;22.262;114.192;2022-10-31T12:07:12;9.63;;;6.15;;
41434;SDS011;27177;22.262;114.192;2022-10-31T12:09:39;12.57;;;6.28;;
41434;SDS011;27177;22.262;114.192;2022-10-31T12:17:58;9.32;;;6.60;;
41434;SDS011;27177;22.262;114.192;2022-10-31T12:45:53;9.70;;;6.90;;
41434;SDS011;27177;22.262;114.192;2022-10-31T12:57:44;13.00;;;6.15;;
41434;SDS011;27177;22.262;114.192;2022-10-31T12:59:57;13.68;;;6.90;;
41434;SDS011;27177;22.262;114.192;2022-10-31T13:02:48;10.90;;;6.35;;
41434;SDS011;27177;22.262;114.192;2022-10-31T13:05:44;12.25;;;7.13;;
41434;SDS011;27177;22.262;114.192;2022-10-31T13:08:27;13.38;;;7.45;;
41434;SDS011;27177;22.262;114.192;2022-10-31T13:14:26;14.98;;;6.97;;
41434;SDS011;27177;22.262;114.192;2022-10-31T13:16:41;10.23;;;6.25;;
41434;SDS011;27177;22.262;114.192;2022-10-31T13:19:23;11.88;;;6.32;;
41434;SDS011;27177;22.262;114.192;2022-10-31T13:22:02;10.40;;;6.28;;
41434;SDS011;27177;22.262;114.192;2022-10-31T13:33:22;11.55;;;6.68;;
41434;SDS011;27177;22.262;114.192;2022-10-31T13:41:45;10.55;;;7.13;;
41434;SDS011;27177;22.262;114.192;2022-10-31T13:44:23;10.48;;;7.07;;
41434;SDS011;27177;22.262;114.192;2022-10-31T13:46:55;14.18;;;6.38;;
41434;SDS011;27177;22.262;114.192;2022-10-31T13:54:38;11.18;;;7.18;;
41434;SDS011;27177;22.262;114.192;2022-10-31T14:02:51;12.27;;;7.50;;
41434;SDS011;27177;22.262;114.192;2022-10-31T14:05:34;9.00;;;6.60;;
41434;SDS011;27177;22.262;114.192;2022-10-31T14:08:20;8.60;;;6.55;;
41434;SDS011;27177;22.262;114.192;2022-10-31T14:10:49;13.75;;;8.52;;
41434;SDS011;27177;22.262;114.192;2022-10-31T14:13:26;10.82;;;7.15;;
41434;SDS011;27177;22.262;114.192;2022-10-31T14:16:24;11.73;;;6.68;;
41434;SDS011;27177;22.262;114.192;2022-10-31T14:21:30;11.75;;;6.78;;
41434;SDS011;27177;22.262;114.192;2022-10-31T14:24:13;8.27;;;6.60;;
41434;SDS011;27177;22.262;114.192;2022-10-31T14:29:24;13.63;;;6.90;;
41434;SDS011;27177;22.262;114.192;2022-10-31T14:34:42;10.85;;;6.20;;
41434;SDS011;27177;22.262;114.192;2022-10-31T14:45:01;13.40;;;7.47;;
41434;SDS011;27177;22.262;114.192;2022-10-31T14:47:47;12.05;;;7.05;;
41434;SDS011;27177;22.262;114.192;2022-10-31T14:50:50;11.63;;;7.13;;
41434;SDS011;27177;22.262;114.192;2022-10-31T14:53:36;9.95;;;6.15;;
41434;SDS011;27177;22.262;114.192;2022-10-31T14:56:19;13.38;;;7.18;;
41434;SDS011;27177;22.262;114.192;2022-10-31T14:59:01;13.15;;;7.72;;
41434;SDS011;27177;22.262;114.192;2022-10-31T15:01:40;11.05;;;7.18;;
41434;SDS011;27177;22.262;114.192;2022-10-31T15:04:34;9.85;;;7.38;;
41434;SDS011;27177;22.262;114.192;2022-10-31T15:07:06;13.43;;;7.35;;
41434;SDS011;27177;22.262;114.192;2022-10-31T15:09:37;13.52;;;8.10;;
41434;SDS011;27177;22.262;114.192;2022-10-31T15:12:27;14.07;;;7.13;;
41434;SDS011;27177;22.262;114.192;2022-10-31T15:18:03;11.38;;;7.40;;
41434;SDS011;27177;22.262;114.192;2022-10-31T15:20:33;12.02;;;7.10;;
41434;SDS011;27177;22.262;114.192;2022-10-31T15:23:21;12.13;;;7.63;;
41434;SDS011;27177;22.262;114.192;2022-10-31T15:26:01;13.23;;;7.65;;
41434;SDS011;27177;22.262;114.192;2022-10-31T15:28:30;12.30;;;7.78;;
41434;SDS011;27177;22.262;114.192;2022-10-31T15:30:58;9.80;;;6.80;;
41434;SDS011;27177;22.262;114.192;2022-10-31T15:33:28;12.25;;;7.22;;
41434;SDS011;27177;22.262;114.192;2022-10-31T15:35:57;11.20;;;7.88;;
41434;SDS011;27177;22.262;114.192;2022-10-31T15:38:28;10.18;;;7.63;;
41434;SDS011;27177;22.262;114.192;2022-10-31T15:40:59;12.25;;;7.78;;
41434;SDS011;27177;22.262;114.192;2022-10-31T15:43:31;9.90;;;7.82;;
41434;SDS011;27177;22.262;114.192;2022-10-31T15:46:02;8.85;;;7.38;;
41434;SDS011;27177;22.262;114.192;2022-10-31T15:48:32;12.48;;;7.63;;
41434;SDS011;27177;22.262;114.192;2022-10-31T15:51:00;10.63;;;7.18;;
41434;SDS011;27177;22.262;114.192;2022-10-31T15:56:01;11.85;;;7.47;;
41434;SDS011;27177;22.262;114.192;2022-10-31T15:58:35;15.77;;;7.68;;
41434;SDS011;27177;22.262;114.192;2022-10-31T16:03:56;10.70;;;7.35;;
41434;SDS011;27177;22.262;114.192;2022-10-31T16:06:38;10.20;;;7.28;;
41434;SDS011;27177;22.262;114.192;2022-10-31T16:09:18;11.30;;;7.72;;
41434;SDS011;27177;22.262;114.192;2022-10-31T16:11:47;12.07;;;7.10;;
41434;SDS011;27177;22.262;114.192;2022-10-31T16:14:15;12.02;;;7.90;;
41434;SDS011;27177;22.262;114.192;2022-10-31T16:16:45;11.68;;;7.75;;
41434;SDS011;27177;22.262;114.192;2022-10-31T16:19:28;14.93;;;8.55;;
41434;SDS011;27177;22.262;114.192;2022-10-31T16:22:02;12.73;;;7.30;;
41434;SDS011;27177;22.262;114.192;2022-10-31T16:24:45;12.13;;;7.97;;
41434;SDS011;27177;22.262;114.192;2022-10-31T16:27:22;10.15;;;7.40;;
41434;SDS011;27177;22.262;114.192;2022-10-31T16:29:56;12.88;;;7.55;;
41434;SDS011;27177;22.262;114.192;2022-10-31T16:32:33;10.23;;;7.30;;
41434;SDS011;27177;22.262;114.192;2022-10-31T16:35:26;11.60;;;7.70;;
41434;SDS011;27177;22.262;114.192;2022-10-31T16:37:58;12.77;;;7.82;;
41434;SDS011;27177;22.262;114.192;2022-10-31T16:40:25;10.95;;;8.00;;
41434;SDS011;27177;22.262;114.192;2022-10-31T16:42:53;13.98;;;8.05;;
41434;SDS011;27177;22.262;114.192;2022-10-31T16:45:23;12.45;;;7.72;;
41434;SDS011;27177;22.262;114.192;2022-10-31T16:47:51;15.52;;;7.40;;
41434;SDS011;27177;22.262;114.192;2022-10-31T16:50:21;12.90;;;7.70;;
41434;SDS011;27177;22.262;114.192;2022-10-31T16:52:49;11.88;;;8.15;;
41434;SDS011;27177;22.262;114.192;2022-10-31T16:55:17;12.98;;;7.85;;
41434;SDS011;27177;22.262;114.192;2022-10-31T16:57:46;12.32;;;7.75;;
41434;SDS011;27177;22.262;114.192;2022-10-31T17:00:21;11.35;;;8.32;;
41434;SDS011;27177;22.262;114.192;2022-10-31T17:02:53;14.82;;;8.10;;
41434;SDS011;27177;22.262;114.192;2022-10-31T17:05:24;10.68;;;7.45;;
41434;SDS011;27177;22.262;114.192;2022-10-31T17:07:58;13.40;;;8.07;;
41434;SDS011;27177;22.262;114.192;2022-10-31T17:10:25;11.02;;;7.93;;
41434;SDS011;27177;22.262;114.192;2022-10-31T17:12:52;10.98;;;7.45;;
41434;SDS011;27177;22.262;114.192;2022-10-31T17:15:24;13.57;;;8.05;;
41434;SDS011;27177;22.262;114.192;2022-10-31T17:20:20;16.90;;;8.40;;
41434;SDS011;27177;22.262;114.192;2022-10-31T17:22:48;10.75;;;7.80;;